Flugplatz Wittmundhafen Airport

Bericht für ETNT

vom 07.12. um 18:20 UTC

Wind 8 kt aus 140°

Sichtweite 10 km oder mehr

gering bewölkt in 800 ft

aufgebrochene Bewölkung in 23000 ft

Temperatur 3.0°C

Taupunkt 2.0°C

Luftfeuchtigkeit 93%

Luftdruck 1003 hPa

ETNT 071820Z 14008KT 9999 FEW008 BKN230 03/02 Q1003 BLU+BLU+

Prognose für ETNT

vom 07.12. um 17:13 UTC

Zwischen 18:00 UTC und 20:00 UTC

Wind 10 kt aus 150° in Böen 20 kt

Sichtweite 10 km oder mehr

keine signifikanten Wettererscheinungen

aufgelockert bewölkt in 1000 ft

aufgelockert bewölkt in 12000 ft

aufgebrochene Bewölkung in 24000 ft


Zwischen 20:00 und 22:00 UTC übergehend zu

Wind 12 kt aus 130° in Böen 22 kt

Sichtweite 8000 m

keine signifikanten Wettererscheinungen

aufgelockert bewölkt in 800 ft

aufgebrochene Bewölkung in 9000 ft

aufgebrochene Bewölkung in 20000 ft


Am 08.12. zwischen 00:00 und 02:00 UTC übergehend zu

Wind 14 kt aus 140° in Böen 24 kt

Sichtweite 4000 m

schwacher Regen

schwacher Schnee

aufgebrochene Bewölkung in 400 ft

aufgebrochene Bewölkung in 4000 ft


Am 08.12. zwischen 02:00 UTC und 03:00 UTC zeitweise

Wind 16 kt aus 140° in Böen 26 kt

Sichtweite 1000 m

Regen

Schnee

bedeckt in 100 ft

TAF ETNT 071713Z 0718/0803 15010G20KT 9999 NSW SCT010 SCT120 BKN240 BECMG 0720/0722 13012G22KT 8000 NSW SCT008 BKN090 BKN200 BECMG 0800/0802 14014G24KT 4000 -RASN BKN004 BKN040 TEMPO 0802/0803 14016G26KT 1000 RASN OVC001
Impressum